createdAt,value
2022-08-08T00:00:55.240Z,0.70
2022-08-08T00:03:28.416Z,0.80
2022-08-08T00:06:12.682Z,0.50
2022-08-08T00:08:48.961Z,0.68
2022-08-08T00:12:03.293Z,0.50
2022-08-08T00:14:54.723Z,0.60
2022-08-08T00:18:01.931Z,0.70
2022-08-08T00:20:44.444Z,0.60
2022-08-08T00:23:43.449Z,0.60
2022-08-08T00:26:38.709Z,0.68
2022-08-08T00:29:45.554Z,0.60
2022-08-08T00:32:53.146Z,0.50
2022-08-08T00:35:48.148Z,0.70
2022-08-08T00:38:31.147Z,0.50
2022-08-08T00:41:14.654Z,0.60
2022-08-08T00:43:58.941Z,0.70
2022-08-08T00:47:04.620Z,0.55
2022-08-08T00:49:59.016Z,0.70
2022-08-08T00:52:51.905Z,0.57
2022-08-08T00:56:04.511Z,0.60
2022-08-08T00:59:15.597Z,0.63
2022-08-08T01:03:15.290Z,0.60
2022-08-08T01:05:29.220Z,0.60
2022-08-08T01:08:50.223Z,0.60
2022-08-08T01:11:37.778Z,0.80
2022-08-08T01:14:54.892Z,0.60
2022-08-08T01:17:19.288Z,0.60
2022-08-08T01:20:08.135Z,0.70
2022-08-08T01:23:15.875Z,0.60
2022-08-08T01:26:31.723Z,0.60
2022-08-08T01:29:35.140Z,0.70
2022-08-08T01:32:41.820Z,0.60
2022-08-08T01:35:40.589Z,0.80
2022-08-08T01:38:14.984Z,0.52
2022-08-08T01:41:16.093Z,0.70
2022-08-08T01:44:04.573Z,0.80
2022-08-08T01:46:47.577Z,0.63
2022-08-08T01:49:53.585Z,0.70
2022-08-08T01:54:04.237Z,0.68
2022-08-08T01:56:29.968Z,0.90
2022-08-08T01:59:08.073Z,0.60
2022-08-08T02:02:07.398Z,0.60
2022-08-08T02:05:01.689Z,0.80
2022-08-08T02:07:54.607Z,0.70
2022-08-08T02:10:37.360Z,0.50
2022-08-08T02:13:52.628Z,0.60
2022-08-08T02:16:25.023Z,0.60
2022-08-08T02:19:57.624Z,0.70
2022-08-08T02:22:31.863Z,0.60
2022-08-08T02:25:07.479Z,0.80
2022-08-08T02:27:44.475Z,0.70
2022-08-08T02:30:50.102Z,0.70
2022-08-08T02:34:08.580Z,0.60
2022-08-08T02:37:05.579Z,0.60
2022-08-08T02:39:59.653Z,0.60
2022-08-08T02:44:35.716Z,0.70
2022-08-08T02:46:10.015Z,0.60
2022-08-08T02:49:01.890Z,0.80
2022-08-08T02:51:55.606Z,0.60
2022-08-08T02:54:36.080Z,0.60
2022-08-08T02:57:44.878Z,0.75
2022-08-08T03:00:31.812Z,0.75
2022-08-08T03:05:01.674Z,0.70
2022-08-08T03:06:56.124Z,0.47
2022-08-08T03:10:00.336Z,0.55
2022-08-08T03:13:01.572Z,0.70
2022-08-08T03:16:05.239Z,0.60
2022-08-08T03:18:48.985Z,0.70
2022-08-08T03:21:18.886Z,0.63
2022-08-08T03:23:57.583Z,0.68
2022-08-08T03:26:42.005Z,0.70
2022-08-08T03:29:21.036Z,0.70
2022-08-08T03:32:12.523Z,0.80
2022-08-08T03:34:41.213Z,0.70
2022-08-08T03:40:04.846Z,0.70
2022-08-08T03:42:33.000Z,0.77
2022-08-08T03:45:02.208Z,0.80
2022-08-08T03:48:08.352Z,0.80
2022-08-08T03:50:49.912Z,0.93
2022-08-08T03:53:37.863Z,1.00
2022-08-08T03:56:09.453Z,0.80
2022-08-08T03:58:38.310Z,0.70
2022-08-08T04:01:25.898Z,0.60
2022-08-08T04:03:58.144Z,0.73
2022-08-08T04:06:29.550Z,0.70
2022-08-08T04:09:10.643Z,0.70
2022-08-08T04:11:48.437Z,0.80
2022-08-08T04:14:35.572Z,0.70
2022-08-08T04:17:06.916Z,0.80
2022-08-08T04:19:50.240Z,0.60
2022-08-08T04:22:23.996Z,0.70
2022-08-08T04:24:56.286Z,0.55
2022-08-08T04:28:02.799Z,0.70
2022-08-08T04:30:18.418Z,0.63
2022-08-08T04:32:50.468Z,0.50
2022-08-08T04:35:22.708Z,0.57
2022-08-08T04:37:52.216Z,0.60
2022-08-08T04:40:23.717Z,0.60
2022-08-08T04:42:56.774Z,0.70
2022-08-08T04:45:33.514Z,0.50
2022-08-08T04:48:01.960Z,0.50
2022-08-08T04:50:38.343Z,0.50
2022-08-08T04:53:13.970Z,0.50
2022-08-08T04:55:56.809Z,0.50
2022-08-08T04:58:27.083Z,0.60
2022-08-08T05:00:54.483Z,0.47
2022-08-08T05:04:07.698Z,0.50
2022-08-08T05:06:13.270Z,0.60
2022-08-08T05:08:43.131Z,0.60
2022-08-08T05:11:18.597Z,0.60
2022-08-08T05:13:58.272Z,0.50
2022-08-08T05:16:54.651Z,0.50
2022-08-08T05:20:11.293Z,0.57
2022-08-08T05:22:10.393Z,0.70
2022-08-08T05:24:41.589Z,0.70
2022-08-08T05:27:15.571Z,0.60
2022-08-08T05:29:42.396Z,0.70
2022-08-08T05:32:09.675Z,0.60
2022-08-08T05:34:49.189Z,0.70
2022-08-08T05:37:23.616Z,0.70
2022-08-08T05:40:07.192Z,0.60
2022-08-08T05:42:43.165Z,0.70
2022-08-08T05:45:25.322Z,0.70
2022-08-08T05:48:08.123Z,0.70
2022-08-08T05:50:36.617Z,0.80
2022-08-08T05:53:53.661Z,1.00
2022-08-08T05:56:11.656Z,0.70
2022-08-08T05:58:57.647Z,1.33
2022-08-08T06:01:52.564Z,1.00
2022-08-08T06:04:23.598Z,0.77
2022-08-08T06:06:56.664Z,0.90
2022-08-08T06:10:00.267Z,0.70
2022-08-08T06:12:30.884Z,0.85
2022-08-08T06:15:03.361Z,0.95
2022-08-08T06:17:50.737Z,0.90
2022-08-08T06:20:21.223Z,0.60
2022-08-08T06:22:50.044Z,0.50
2022-08-08T06:25:19.578Z,0.43
2022-08-08T06:28:14.342Z,0.60
2022-08-08T06:30:44.627Z,0.50
2022-08-08T06:33:15.098Z,0.50
2022-08-08T06:36:07.431Z,0.50
2022-08-08T06:38:37.973Z,0.50
2022-08-08T06:41:13.414Z,0.35
2022-08-08T06:43:47.768Z,0.50
2022-08-08T06:46:29.830Z,0.20
2022-08-08T06:48:57.841Z,0.25
2022-08-08T06:51:47.176Z,0.30
2022-08-08T06:54:14.058Z,0.30
2022-08-08T06:56:41.908Z,0.30
2022-08-08T06:59:13.999Z,0.30
2022-08-08T07:02:27.857Z,0.30
2022-08-08T07:05:02.824Z,0.40
2022-08-08T07:07:40.614Z,0.32
2022-08-08T07:10:12.568Z,0.28
2022-08-08T07:12:47.498Z,0.20
2022-08-08T07:15:40.806Z,0.40
2022-08-08T07:18:36.230Z,0.40
2022-08-08T07:21:18.479Z,0.30
2022-08-08T07:24:32.716Z,0.40
2022-08-08T07:27:05.878Z,0.20
2022-08-08T07:30:00.411Z,0.30
2022-08-08T07:32:25.668Z,0.40
2022-08-08T07:35:00.317Z,0.35
2022-08-08T07:40:28.847Z,0.30
2022-08-08T07:42:57.677Z,0.30
2022-08-08T07:45:26.555Z,0.30
2022-08-08T07:48:02.774Z,0.25
2022-08-08T07:50:37.658Z,0.30
2022-08-08T07:53:51.957Z,0.32
2022-08-08T07:56:09.502Z,0.35
2022-08-08T07:58:45.172Z,0.30
2022-08-08T08:01:27.200Z,0.20
2022-08-08T08:04:14.930Z,0.25
2022-08-08T08:06:44.228Z,0.20
2022-08-08T08:09:24.723Z,0.30
2022-08-08T08:11:56.348Z,0.30
2022-08-08T08:15:02.924Z,0.20
2022-08-08T08:17:44.958Z,0.30
2022-08-08T08:20:21.176Z,0.30
2022-08-08T08:22:56.992Z,0.28
2022-08-08T08:25:40.935Z,0.30
2022-08-08T08:28:11.083Z,0.20
2022-08-08T08:30:49.186Z,0.20
2022-08-08T08:33:17.286Z,0.30
2022-08-08T08:36:17.708Z,0.30
2022-08-08T08:41:13.237Z,0.20
2022-08-08T08:43:46.401Z,0.40
2022-08-08T08:46:17.724Z,0.40
2022-08-08T08:48:49.465Z,0.30
2022-08-08T08:51:19.534Z,0.45
2022-08-08T08:53:56.109Z,0.30
2022-08-08T08:56:29.726Z,0.30
2022-08-08T08:59:03.420Z,0.30
2022-08-08T09:01:38.283Z,0.40
2022-08-08T09:04:31.147Z,0.40
2022-08-08T09:07:11.992Z,0.30
2022-08-08T09:09:48.217Z,0.30
2022-08-08T09:12:27.455Z,0.20
2022-08-08T09:17:41.927Z,0.30
2022-08-08T09:21:57.488Z,0.20
2022-08-08T09:23:04.710Z,0.30
2022-08-08T09:25:54.752Z,0.30
2022-08-08T09:28:37.281Z,0.30
2022-08-08T09:31:14.717Z,0.30
2022-08-08T09:34:14.911Z,0.20
2022-08-08T09:36:51.798Z,0.40
2022-08-08T09:39:43.123Z,0.20
2022-08-08T09:42:20.241Z,0.30
2022-08-08T09:45:15.582Z,0.40
2022-08-08T09:48:04.179Z,0.30
2022-08-08T09:50:37.065Z,0.20
2022-08-08T09:53:24.728Z,0.20
2022-08-08T09:56:06.851Z,0.43
2022-08-08T09:58:44.768Z,0.30
2022-08-08T10:01:14.224Z,0.22
2022-08-08T10:03:42.424Z,0.30
2022-08-08T10:06:17.916Z,0.20
2022-08-08T10:08:46.803Z,0.30
2022-08-08T10:12:26.755Z,0.30
2022-08-08T10:14:07.323Z,0.30
2022-08-08T10:16:54.751Z,0.22
2022-08-08T10:19:21.397Z,0.20
2022-08-08T10:21:52.737Z,0.20
2022-08-08T10:24:28.692Z,0.20
2022-08-08T10:27:00.937Z,0.40
2022-08-08T10:29:59.921Z,0.32
2022-08-08T10:32:32.743Z,0.20
2022-08-08T10:36:01.825Z,0.20
2022-08-08T10:38:08.544Z,0.30
2022-08-08T10:40:38.875Z,0.20
2022-08-08T10:43:06.961Z,0.30
2022-08-08T10:45:56.571Z,0.20
2022-08-08T10:48:56.700Z,0.30
2022-08-08T10:51:25.899Z,0.30
2022-08-08T10:53:57.282Z,0.20
2022-08-08T10:56:27.355Z,0.30
2022-08-08T10:59:09.229Z,0.20
2022-08-08T11:01:41.276Z,0.40
2022-08-08T11:04:10.671Z,0.30
2022-08-08T11:06:42.057Z,0.30
2022-08-08T11:09:19.871Z,0.30
2022-08-08T11:12:05.961Z,0.30
2022-08-08T11:14:57.036Z,0.20
2022-08-08T11:17:58.054Z,0.30
2022-08-08T11:20:27.981Z,0.20
2022-08-08T11:23:00.607Z,0.30
2022-08-08T11:25:52.030Z,0.20
2022-08-08T11:28:30.851Z,0.30
2022-08-08T11:31:03.883Z,0.30
2022-08-08T11:33:35.352Z,0.30
2022-08-08T11:36:21.973Z,0.30
2022-08-08T11:38:55.326Z,0.30
2022-08-08T11:41:32.349Z,0.35
2022-08-08T11:44:00.534Z,0.30
2022-08-08T11:46:31.400Z,0.30
2022-08-08T11:49:00.145Z,0.20
2022-08-08T11:51:30.929Z,0.30
2022-08-08T11:54:26.985Z,0.30
2022-08-08T11:56:57.904Z,0.30
2022-08-08T11:59:57.949Z,0.38
2022-08-08T12:02:36.938Z,0.38
2022-08-08T12:05:12.204Z,0.20
2022-08-08T12:07:52.314Z,0.30
2022-08-08T12:10:26.600Z,0.47
2022-08-08T12:13:33.536Z,0.50
2022-08-08T12:16:16.446Z,0.30
2022-08-08T12:18:45.700Z,0.40
2022-08-08T12:22:00.708Z,0.40
2022-08-08T12:24:27.860Z,0.30
2022-08-08T12:26:58.678Z,0.30
2022-08-08T12:29:40.345Z,0.30
2022-08-08T12:32:20.004Z,0.38
2022-08-08T12:35:13.034Z,0.30
2022-08-08T12:38:01.237Z,0.40
2022-08-08T12:41:01.007Z,0.30
2022-08-08T12:43:47.660Z,0.30
2022-08-08T12:46:27.029Z,0.30
2022-08-08T12:51:58.631Z,0.30
2022-08-08T12:54:36.643Z,0.30
2022-08-08T12:57:32.772Z,0.20
2022-08-08T13:00:33.989Z,0.40
2022-08-08T13:03:07.389Z,0.20
2022-08-08T13:06:02.960Z,0.20
2022-08-08T13:08:21.937Z,0.30
2022-08-08T13:10:56.912Z,0.40
2022-08-08T13:13:35.292Z,0.30
2022-08-08T13:16:25.613Z,0.20
2022-08-08T13:18:57.554Z,0.20
2022-08-08T13:21:53.375Z,0.20
2022-08-08T13:24:18.307Z,0.20
2022-08-08T13:26:45.771Z,0.20
2022-08-08T13:29:15.394Z,0.63
2022-08-08T13:31:50.787Z,0.32
2022-08-08T13:34:29.369Z,1.00
2022-08-08T13:37:00.156Z,0.30
2022-08-08T13:39:27.057Z,0.20
2022-08-08T13:42:00.103Z,0.25
2022-08-08T13:44:30.021Z,0.30
2022-08-08T13:47:02.895Z,0.20
2022-08-08T13:50:39.217Z,0.30
2022-08-08T13:52:23.173Z,0.40
2022-08-08T13:55:06.083Z,0.30
2022-08-08T13:58:06.264Z,0.30
2022-08-08T14:00:23.906Z,0.30
2022-08-08T14:02:59.411Z,0.30
2022-08-08T14:05:34.492Z,0.30
2022-08-08T14:08:16.844Z,0.35
2022-08-08T14:10:51.835Z,0.30
2022-08-08T14:16:02.481Z,0.50
2022-08-08T14:18:36.745Z,0.50
2022-08-08T14:21:21.096Z,0.30
2022-08-08T14:24:08.025Z,0.20
2022-08-08T14:26:46.165Z,0.30
2022-08-08T14:29:29.840Z,0.20
2022-08-08T14:32:08.839Z,0.30
2022-08-08T14:34:43.521Z,0.22
2022-08-08T14:37:16.282Z,0.30
2022-08-08T14:40:05.804Z,0.30
2022-08-08T14:42:55.228Z,0.30
2022-08-08T14:45:29.079Z,0.40
2022-08-08T14:48:12.940Z,0.50
2022-08-08T14:50:43.230Z,0.40
2022-08-08T14:53:14.223Z,0.50
2022-08-08T14:55:42.946Z,0.30
2022-08-08T14:58:12.173Z,0.38
2022-08-08T15:00:43.397Z,0.30
2022-08-08T15:03:16.081Z,0.38
2022-08-08T15:05:53.681Z,0.30
2022-08-08T15:08:35.621Z,0.50
2022-08-08T15:11:09.106Z,0.60
2022-08-08T15:14:00.643Z,0.50
2022-08-08T15:16:27.953Z,0.35
2022-08-08T15:18:54.979Z,0.40
2022-08-08T15:21:21.741Z,0.50
2022-08-08T15:23:52.024Z,0.40
2022-08-08T15:26:20.216Z,0.47
2022-08-08T15:28:50.804Z,0.50
2022-08-08T15:31:25.938Z,0.40
2022-08-08T15:34:18.685Z,0.50
2022-08-08T15:36:54.206Z,0.50
2022-08-08T15:39:21.264Z,0.50
2022-08-08T15:41:48.579Z,0.50
2022-08-08T15:44:17.904Z,0.40
2022-08-08T15:46:45.603Z,0.50
2022-08-08T15:49:20.426Z,0.50
2022-08-08T15:51:49.861Z,0.70
2022-08-08T15:54:18.957Z,0.50
2022-08-08T15:57:04.059Z,0.40
2022-08-08T16:00:18.282Z,0.40
2022-08-08T16:02:21.563Z,0.70
2022-08-08T16:04:48.403Z,0.75
2022-08-08T16:07:21.445Z,0.55
2022-08-08T16:13:03.969Z,0.50
2022-08-08T16:13:11.079Z,0.47
2022-08-08T16:15:21.271Z,0.45
2022-08-08T16:18:06.047Z,0.50
2022-08-08T16:20:36.191Z,0.30
2022-08-08T16:23:03.580Z,0.40
2022-08-08T16:25:46.102Z,0.40
2022-08-08T16:28:35.623Z,0.50
2022-08-08T16:31:07.936Z,0.40
2022-08-08T16:33:38.551Z,0.38
2022-08-08T16:36:08.900Z,0.40
2022-08-08T16:38:44.355Z,0.40
2022-08-08T16:41:19.988Z,0.50
2022-08-08T16:43:51.491Z,0.40
2022-08-08T16:46:37.397Z,0.38
2022-08-08T16:49:10.370Z,0.40
2022-08-08T16:55:01.829Z,0.40
2022-08-08T16:55:19.500Z,0.40
2022-08-08T16:57:43.478Z,0.50
2022-08-08T17:00:06.536Z,0.50
2022-08-08T17:02:38.369Z,0.40
2022-08-08T17:05:13.824Z,0.40
2022-08-08T17:10:09.928Z,0.60
2022-08-08T17:12:38.290Z,0.50
2022-08-08T17:15:18.028Z,0.50
2022-08-08T17:18:03.138Z,0.60
2022-08-08T17:20:32.484Z,0.60
2022-08-08T17:23:18.086Z,0.70
2022-08-08T17:25:53.709Z,0.50
2022-08-08T17:28:34.514Z,1.20
2022-08-08T17:31:39.552Z,0.60
2022-08-08T17:34:52.769Z,0.50
2022-08-08T17:36:55.206Z,0.50
2022-08-08T17:40:03.886Z,0.50
2022-08-08T17:42:15.536Z,0.40
2022-08-08T17:44:44.194Z,0.50
2022-08-08T17:47:16.288Z,0.77
2022-08-08T17:52:19.157Z,0.75
2022-08-08T17:54:46.354Z,0.68
2022-08-08T17:57:14.289Z,0.60
2022-08-08T17:59:45.568Z,0.70
2022-08-08T18:02:18.605Z,0.80
2022-08-08T18:04:50.848Z,0.70
2022-08-08T18:08:03.017Z,0.73
2022-08-08T18:10:05.229Z,0.70
2022-08-08T18:12:31.870Z,0.90
2022-08-08T18:14:58.683Z,0.60
2022-08-08T18:17:28.721Z,0.90
2022-08-08T18:20:44.233Z,0.70
2022-08-08T18:23:00.203Z,0.80
2022-08-08T18:25:28.579Z,0.70
2022-08-08T18:28:04.875Z,0.90
2022-08-08T18:30:33.024Z,0.95
2022-08-08T18:32:59.708Z,1.00
2022-08-08T18:35:34.229Z,0.80
2022-08-08T18:38:16.657Z,1.08
2022-08-08T18:40:45.742Z,1.10
2022-08-08T18:43:16.603Z,1.15
2022-08-08T18:46:53.041Z,1.13
2022-08-08T18:48:31.838Z,1.10
2022-08-08T18:50:59.161Z,1.30
2022-08-08T18:54:03.238Z,1.20
2022-08-08T18:56:26.234Z,0.90
2022-08-08T18:58:53.530Z,0.93
2022-08-08T19:02:25.773Z,1.17
2022-08-08T19:04:12.584Z,1.10
2022-08-08T19:06:39.742Z,1.20
2022-08-08T19:09:13.255Z,1.13
2022-08-08T19:11:40.445Z,1.30
2022-08-08T19:14:20.334Z,1.15
2022-08-08T19:16:49.989Z,1.05
2022-08-08T19:19:17.820Z,1.20
2022-08-08T19:21:49.194Z,1.13
2022-08-08T19:24:38.129Z,1.15
2022-08-08T19:27:06.635Z,1.45
2022-08-08T19:29:40.832Z,1.45
2022-08-08T19:32:13.045Z,1.80
2022-08-08T19:34:49.222Z,1.60
2022-08-08T19:37:42.992Z,1.60
2022-08-08T19:40:14.666Z,1.63
2022-08-08T19:42:44.142Z,1.70
2022-08-08T19:45:13.927Z,1.65
2022-08-08T19:47:41.089Z,1.63
2022-08-08T19:50:08.647Z,1.50
2022-08-08T19:52:39.467Z,1.60
2022-08-08T19:55:23.566Z,1.70
2022-08-08T19:57:50.376Z,1.60
2022-08-08T20:00:30.672Z,1.80
2022-08-08T20:03:14.976Z,1.70
2022-08-08T20:06:13.474Z,1.45
2022-08-08T20:08:35.573Z,1.42
2022-08-08T20:11:02.194Z,1.77
2022-08-08T20:14:13.109Z,1.80
2022-08-08T20:16:17.151Z,1.75
2022-08-08T20:18:52.436Z,2.00
2022-08-08T20:21:22.999Z,1.80
2022-08-08T20:23:52.566Z,1.80
2022-08-08T20:26:27.503Z,1.60
2022-08-08T20:28:57.135Z,1.42
2022-08-08T20:31:23.737Z,1.45
2022-08-08T20:34:27.796Z,1.40
2022-08-08T20:36:38.608Z,1.35
2022-08-08T20:39:06.128Z,1.60
2022-08-08T20:41:33.996Z,1.20
2022-08-08T20:44:01.044Z,1.30
2022-08-08T20:46:27.776Z,1.10
2022-08-08T20:48:58.602Z,1.30
2022-08-08T20:51:32.422Z,1.02
2022-08-08T20:54:04.898Z,1.27
2022-08-08T20:57:17.026Z,1.08
2022-08-08T20:59:24.936Z,1.13
2022-08-08T21:02:06.508Z,0.95
2022-08-08T21:04:35.621Z,1.00
2022-08-08T21:07:13.857Z,1.05
2022-08-08T21:09:48.512Z,1.13
2022-08-08T21:12:32.473Z,1.10
2022-08-08T21:15:06.963Z,1.10
2022-08-08T21:17:36.888Z,1.30
2022-08-08T21:20:04.611Z,1.20
2022-08-08T21:22:31.416Z,1.10
2022-08-08T21:24:58.238Z,1.00
2022-08-08T21:27:38.796Z,1.10
2022-08-08T21:30:18.791Z,1.15
2022-08-08T21:32:50.968Z,1.00
2022-08-08T21:36:17.791Z,1.00
2022-08-08T21:38:08.482Z,1.05
2022-08-08T21:40:56.491Z,1.20
2022-08-08T21:43:33.159Z,0.98
2022-08-08T21:48:01.730Z,1.10
2022-08-08T21:48:54.535Z,1.15
2022-08-08T21:54:18.773Z,1.10
2022-08-08T21:54:30.896Z,1.02
2022-08-08T21:56:59.571Z,1.08
2022-08-08T21:59:43.920Z,1.13
2022-08-08T22:02:14.324Z,1.10
2022-08-08T22:04:42.677Z,1.13
2022-08-08T22:07:09.258Z,1.10
2022-08-08T22:09:41.290Z,1.10
2022-08-08T22:12:16.912Z,1.10
2022-08-08T22:14:47.218Z,1.05
2022-08-08T22:17:18.235Z,0.90
2022-08-08T22:20:10.642Z,0.95
2022-08-08T22:22:37.449Z,1.10
2022-08-08T22:25:12.367Z,0.90
2022-08-08T22:28:04.353Z,0.88
2022-08-08T22:30:38.715Z,0.80
2022-08-08T22:33:21.890Z,0.80
2022-08-08T22:36:04.446Z,1.00
2022-08-08T22:38:48.140Z,0.93
2022-08-08T22:41:21.618Z,1.00
2022-08-08T22:44:02.805Z,1.00
2022-08-08T22:46:34.143Z,0.95
2022-08-08T22:49:01.169Z,0.90
2022-08-08T22:51:29.624Z,1.00
2022-08-08T22:54:31.593Z,1.00
2022-08-08T22:56:50.161Z,0.90
2022-08-08T22:59:18.526Z,0.90
2022-08-08T23:02:03.827Z,0.90
2022-08-08T23:04:32.224Z,0.82
2022-08-08T23:07:02.990Z,0.80
2022-08-08T23:09:31.121Z,1.05
2022-08-08T23:12:28.583Z,0.93
2022-08-08T23:14:56.065Z,0.90
2022-08-08T23:17:30.002Z,0.93
2022-08-08T23:19:56.886Z,0.88
2022-08-08T23:22:23.726Z,1.02
2022-08-08T23:24:50.872Z,1.30
2022-08-08T23:27:39.071Z,1.30
2022-08-08T23:30:09.191Z,1.40
2022-08-08T23:32:44.072Z,1.20
2022-08-08T23:35:12.675Z,1.30
2022-08-08T23:38:01.590Z,1.17
2022-08-08T23:40:30.970Z,1.10
2022-08-08T23:42:57.788Z,1.10
2022-08-08T23:49:00.269Z,1.08
2022-08-08T23:49:06.163Z,1.20
2022-08-08T23:50:58.287Z,0.88
2022-08-08T23:54:05.144Z,0.90
2022-08-08T23:56:12.117Z,1.00
2022-08-08T23:58:39.015Z,1.05
